createdAt,value
2019-04-07T00:00:34.406Z,100544.52
2019-04-07T00:03:08.644Z,100555.40
2019-04-07T00:05:40.775Z,100552.66
2019-04-07T00:08:12.564Z,100555.73
2019-04-07T00:10:45.292Z,100553.99
2019-04-07T00:13:17.326Z,100527.28
2019-04-07T00:15:49.943Z,100527.96
2019-04-07T00:18:23.033Z,100530.36
2019-04-07T00:20:55.265Z,100526.16
2019-04-07T00:23:27.308Z,100519.08
2019-04-07T00:26:00.163Z,100517.30
2019-04-07T00:28:35.185Z,100511.48
2019-04-07T00:31:06.597Z,100511.41
2019-04-07T00:33:40.176Z,100514.09
2019-04-07T00:36:12.298Z,100509.75
2019-04-07T00:38:45.001Z,100509.08
2019-04-07T00:41:17.235Z,100513.59
2019-04-07T00:43:49.648Z,100513.42
2019-04-07T00:46:23.422Z,100509.59
2019-04-07T00:48:56.202Z,100509.48
2019-04-07T00:51:28.617Z,100509.82
2019-04-07T00:54:01.123Z,100517.34
2019-04-07T00:56:33.674Z,100511.80
2019-04-07T00:59:06.875Z,100516.73
2019-04-07T01:01:39.901Z,100520.02
2019-04-07T01:04:13.112Z,100514.21
2019-04-07T01:06:45.988Z,100512.27
2019-04-07T01:09:18.755Z,100520.72
2019-04-07T01:11:51.052Z,100518.97
2019-04-07T01:14:24.710Z,100523.59
2019-04-07T01:16:57.446Z,100512.98
2019-04-07T01:19:29.181Z,100516.52
2019-04-07T01:22:03.194Z,100508.23
2019-04-07T01:24:38.501Z,100510.35
2019-04-07T01:27:11.525Z,100509.64
2019-04-07T01:29:44.550Z,100511.24
2019-04-07T01:32:16.955Z,100507.62
2019-04-07T01:34:52.112Z,100516.58
2019-04-07T01:37:24.256Z,100509.98
2019-04-07T01:39:56.691Z,100507.10
2019-04-07T01:42:46.495Z,100502.63
2019-04-07T01:45:33.419Z,100507.14
2019-04-07T01:48:24.661Z,100490.75
2019-04-07T01:51:25.819Z,100493.31
2019-04-07T01:54:19.989Z,100496.70
2019-04-07T01:57:13.497Z,100504.30
2019-04-07T02:00:03.129Z,100499.84
2019-04-07T02:02:57.562Z,100498.71
2019-04-07T02:05:59.283Z,100471.88
2019-04-07T02:08:54.998Z,100406.95
2019-04-07T02:11:38.626Z,100267.21
2019-04-07T02:14:30.283Z,100052.17
2019-04-07T02:17:12.021Z,99026.13
2019-04-07T02:20:18.093Z,99037.33
2019-04-07T02:23:10.606Z,99064.88
2019-04-07T02:25:54.913Z,99099.86
2019-04-07T02:28:52.559Z,99122.63
2019-04-07T02:31:52.274Z,99139.31
2019-04-07T02:34:53.144Z,99169.87
2019-04-07T02:37:52.891Z,99201.70
2019-04-07T02:40:48.787Z,99218.64
2019-04-07T02:43:43.162Z,99237.61
2019-04-07T02:46:33.289Z,99262.84
2019-04-07T02:49:26.749Z,99279.41
2019-04-07T02:52:12.361Z,99295.70
2019-04-07T02:54:55.201Z,99315.11
2019-04-07T02:57:58.235Z,99321.72
2019-04-07T03:00:52.398Z,99333.23
2019-04-07T03:03:42.771Z,99347.16
2019-04-07T03:06:38.419Z,99364.59
2019-04-07T03:09:21.846Z,99382.88
2019-04-07T03:12:05.398Z,99389.64
2019-04-07T03:14:55.866Z,99399.08
2019-04-07T03:17:46.334Z,99405.94
2019-04-07T03:20:40.978Z,99423.39
2019-04-07T03:23:40.257Z,99430.31
2019-04-07T03:26:29.435Z,99435.28
2019-04-07T03:29:11.917Z,99446.05
2019-04-07T03:32:00.055Z,99446.90
2019-04-07T03:34:38.967Z,99452.97
2019-04-07T03:37:34.300Z,99455.52
2019-04-07T03:40:12.625Z,99458.67
2019-04-07T03:42:57.269Z,99454.99
2019-04-07T03:45:46.241Z,99457.17
2019-04-07T03:48:36.975Z,99476.33
2019-04-07T03:51:42.612Z,99527.31
2019-04-07T03:54:26.644Z,99552.89
2019-04-07T03:57:19.825Z,99562.33
2019-04-07T04:00:16.840Z,99562.91
2019-04-07T04:03:04.156Z,99558.53
2019-04-07T04:05:43.401Z,99561.27
2019-04-07T04:08:23.277Z,99565.41
2019-04-07T04:11:14.206Z,99569.34
2019-04-07T04:14:07.855Z,99567.25
2019-04-07T04:16:45.845Z,99553.25
2019-04-07T04:19:17.428Z,99560.58
2019-04-07T04:21:48.681Z,99548.02
2019-04-07T04:24:20.005Z,99544.47
2019-04-07T04:26:52.301Z,99552.08
2019-04-07T04:29:24.636Z,99554.74
2019-04-07T04:31:57.106Z,99561.65
2019-04-07T04:34:28.520Z,99718.14
2019-04-07T04:37:00.045Z,99925.65
2019-04-07T04:39:34.138Z,100288.22
2019-04-07T04:42:05.751Z,100293.48
2019-04-07T04:44:37.982Z,100297.41
2019-04-07T04:47:10.186Z,100316.81
2019-04-07T04:49:43.533Z,100318.67
2019-04-07T04:52:15.681Z,100332.49
2019-04-07T04:54:47.482Z,100332.80
2019-04-07T04:57:19.997Z,100336.84
2019-04-07T04:59:51.263Z,100339.16
2019-04-07T05:02:23.538Z,100339.91
2019-04-07T05:04:56.115Z,100310.19
2019-04-07T05:07:27.559Z,100250.81
2019-04-07T05:09:58.879Z,100239.88
2019-04-07T05:12:31.354Z,100245.70
2019-04-07T05:15:02.618Z,100251.59
2019-04-07T05:17:33.983Z,100250.17
2019-04-07T05:20:06.040Z,100257.26
2019-04-07T05:22:37.944Z,100264.07
2019-04-07T05:25:09.472Z,100273.27
2019-04-07T05:27:40.597Z,100272.89
2019-04-07T05:30:12.347Z,100214.42
2019-04-07T05:32:44.289Z,100188.60
2019-04-07T05:35:15.531Z,100181.72
2019-04-07T05:37:59.906Z,100186.27
2019-04-07T05:40:21.466Z,100183.66
2019-04-07T05:42:53.208Z,100183.70
2019-04-07T05:45:25.360Z,100208.12
2019-04-07T05:47:56.724Z,100215.05
2019-04-07T05:50:28.795Z,100209.19
2019-04-07T05:53:00.319Z,100213.84
2019-04-07T05:55:32.309Z,100222.38
2019-04-07T05:58:06.969Z,100224.81
2019-04-07T06:00:37.179Z,100226.13
2019-04-07T06:03:09.339Z,100224.52
2019-04-07T06:05:41.023Z,100224.37
2019-04-07T06:08:24.650Z,100219.45
2019-04-07T06:10:45.900Z,100223.46
2019-04-07T06:13:17.620Z,100230.64
2019-04-07T06:15:51.157Z,100233.81
2019-04-07T06:18:22.813Z,100230.69
2019-04-07T06:20:54.515Z,100238.97
2019-04-07T06:23:28.566Z,100239.91
2019-04-07T06:25:59.456Z,100258.74
2019-04-07T06:28:31.610Z,100264.21
2019-04-07T06:31:03.184Z,100264.38
2019-04-07T06:33:37.620Z,100269.82
2019-04-07T06:36:08.248Z,100269.82
2019-04-07T06:38:43.627Z,100278.73
2019-04-07T06:41:13.754Z,100286.83
2019-04-07T06:43:45.197Z,100282.22
2019-04-07T06:46:39.041Z,100292.66
2019-04-07T06:49:19.761Z,100294.49
2019-04-07T06:52:14.572Z,100300.77
2019-04-07T06:55:14.656Z,100302.34
2019-04-07T06:58:02.094Z,100314.42
2019-04-07T07:00:47.294Z,100311.22
2019-04-07T07:03:53.824Z,100324.14
2019-04-07T07:06:55.809Z,100334.34
2019-04-07T07:11:35.451Z,100355.30
2019-04-07T07:14:32.879Z,100346.94
2019-04-07T07:17:27.879Z,100368.31
2019-04-07T07:20:21.789Z,100389.50
2019-04-07T07:23:00.444Z,100437.88
2019-04-07T07:25:33.060Z,100495.08
2019-04-07T07:28:04.470Z,100578.42
2019-04-07T07:30:36.114Z,100937.27
2019-04-07T07:33:09.990Z,100896.64
2019-04-07T07:35:40.979Z,100918.84
2019-04-07T07:38:12.626Z,100919.34
2019-04-07T07:40:44.988Z,100922.38
2019-04-07T07:43:17.614Z,100910.80
2019-04-07T07:45:48.893Z,100885.00
2019-04-07T07:48:20.800Z,100839.12
2019-04-07T07:50:53.735Z,100847.30
2019-04-07T07:53:28.115Z,100649.50
2019-04-07T07:55:58.425Z,100642.61
2019-04-07T07:58:32.622Z,100638.90
2019-04-07T08:01:03.301Z,100664.83
2019-04-07T08:03:35.184Z,100697.95
2019-04-07T08:06:08.342Z,100674.83
2019-04-07T08:08:39.696Z,100686.77
2019-04-07T08:11:11.232Z,100686.69
2019-04-07T08:13:44.984Z,100686.59
2019-04-07T08:16:16.282Z,100689.07
2019-04-07T08:18:47.753Z,100691.98
2019-04-07T08:21:20.158Z,100707.88
2019-04-07T08:23:52.396Z,100706.91
2019-04-07T08:26:25.099Z,100713.56
2019-04-07T08:28:56.628Z,100706.88
2019-04-07T08:31:29.277Z,100722.98
2019-04-07T08:34:01.556Z,100729.90
2019-04-07T08:36:33.833Z,100733.45
2019-04-07T08:39:18.534Z,100744.50
2019-04-07T08:41:41.641Z,100737.12
2019-04-07T08:44:13.152Z,100733.28
2019-04-07T08:46:44.677Z,100728.45
2019-04-07T08:49:17.138Z,100735.91
2019-04-07T08:51:48.377Z,100737.28
2019-04-07T08:54:19.957Z,100733.14
2019-04-07T08:56:52.018Z,100737.19
2019-04-07T08:59:23.556Z,100732.66
2019-04-07T09:01:57.061Z,100729.86
2019-04-07T09:04:28.467Z,100725.33
2019-04-07T09:07:02.189Z,100730.16
2019-04-07T09:09:36.887Z,100745.40
2019-04-07T09:12:06.000Z,100744.63
2019-04-07T09:14:39.716Z,100754.97
2019-04-07T09:17:32.217Z,100748.73
2019-04-07T09:20:29.199Z,100747.89
2019-04-07T09:23:20.054Z,100745.75
2019-04-07T09:26:11.781Z,100746.82
2019-04-07T09:29:10.488Z,100744.33
2019-04-07T09:31:56.357Z,100745.48
2019-04-07T09:34:50.546Z,100749.23
2019-04-07T09:37:26.223Z,100747.33
2019-04-07T09:40:06.843Z,100750.77
2019-04-07T09:42:47.429Z,100748.62
2019-04-07T09:45:38.596Z,100755.66
2019-04-07T09:48:21.011Z,100756.75
2019-04-07T09:51:11.146Z,100758.16
2019-04-07T09:54:10.025Z,100748.08
2019-04-07T09:57:03.426Z,100749.20
2019-04-07T09:59:53.380Z,100746.43
2019-04-07T10:02:43.721Z,100749.73
2019-04-07T10:05:32.718Z,100743.45
2019-04-07T10:08:22.892Z,100745.97
2019-04-07T10:11:12.850Z,100747.09
2019-04-07T10:14:05.675Z,100740.17
2019-04-07T10:16:57.400Z,100739.79
2019-04-07T10:19:47.526Z,100743.73
2019-04-07T10:22:35.011Z,100737.20
2019-04-07T10:25:26.873Z,100735.36
2019-04-07T10:28:22.379Z,100738.63
2019-04-07T10:31:13.830Z,100737.20
2019-04-07T10:34:08.077Z,100738.94
2019-04-07T10:37:03.679Z,100733.73
2019-04-07T10:40:33.365Z,100738.66
2019-04-07T10:43:08.508Z,100735.54
2019-04-07T10:45:45.926Z,100739.01
2019-04-07T10:48:33.325Z,100739.15
2019-04-07T10:51:47.672Z,100744.84
2019-04-07T10:54:52.476Z,100728.80
2019-04-07T10:57:31.198Z,100734.21
2019-04-07T11:00:21.416Z,100736.49
2019-04-07T11:03:06.466Z,100732.23
2019-04-07T11:05:55.358Z,100739.60
2019-04-07T11:08:44.322Z,100739.63
2019-04-07T11:11:49.098Z,100731.17
2019-04-07T11:14:44.422Z,100735.87
2019-04-07T11:17:38.298Z,100735.95
2019-04-07T11:20:17.880Z,100737.31
2019-04-07T11:23:16.582Z,100735.66
2019-04-07T11:26:05.460Z,100734.12
2019-04-07T11:28:51.165Z,100731.34
2019-04-07T11:31:30.965Z,100738.27
2019-04-07T11:34:27.107Z,100738.05
2019-04-07T11:37:20.021Z,100739.15
2019-04-07T11:40:10.763Z,100739.81
2019-04-07T11:43:04.425Z,100748.17
2019-04-07T11:46:03.566Z,100748.05
2019-04-07T11:48:52.310Z,100744.25
2019-04-07T11:51:32.473Z,100747.31
2019-04-07T11:54:24.132Z,100743.39
2019-04-07T11:57:21.531Z,100746.33
2019-04-07T12:00:01.170Z,100743.30
2019-04-07T12:02:51.917Z,100743.62
2019-04-07T12:05:55.139Z,100745.35
2019-04-07T12:08:39.369Z,100739.05
2019-04-07T12:11:48.287Z,100732.99
2019-04-07T12:14:33.926Z,100730.59
2019-04-07T12:17:25.610Z,100732.31
2019-04-07T12:20:15.208Z,100724.99
2019-04-07T12:23:22.921Z,100726.98
2019-04-07T12:26:05.159Z,100730.45
2019-04-07T12:28:47.591Z,100725.06
2019-04-07T12:31:43.448Z,100726.69
2019-04-07T12:34:45.842Z,100726.58
2019-04-07T12:37:42.396Z,100733.41
2019-04-07T12:40:34.544Z,100735.82
2019-04-07T12:43:13.195Z,100731.86
2019-04-07T12:45:53.713Z,100739.95
2019-04-07T12:48:46.949Z,100729.48
2019-04-07T12:51:42.976Z,100737.64
2019-04-07T12:54:22.214Z,100733.56
2019-04-07T12:57:26.174Z,100734.34
2019-04-07T13:00:23.924Z,100733.28
2019-04-07T13:03:13.080Z,100727.18
2019-04-07T13:06:08.674Z,100736.41
2019-04-07T13:08:58.162Z,100738.12
2019-04-07T13:11:40.120Z,100733.28
2019-04-07T13:14:41.304Z,100732.28
2019-04-07T13:17:41.022Z,100734.09
2019-04-07T13:20:33.283Z,100734.81
2019-04-07T13:23:37.271Z,100731.72
2019-04-07T13:26:30.246Z,100726.77
2019-04-07T13:29:20.531Z,100733.80
2019-04-07T13:32:00.157Z,100733.36
2019-04-07T13:34:49.886Z,100745.14
2019-04-07T13:37:27.164Z,100736.27
2019-04-07T13:40:20.342Z,100743.09
2019-04-07T13:43:04.251Z,100736.34
2019-04-07T13:45:53.940Z,100735.45
2019-04-07T13:48:51.551Z,100737.95
2019-04-07T13:51:40.877Z,100738.64
2019-04-07T13:54:27.771Z,100734.25
2019-04-07T13:57:22.228Z,100735.16
2019-04-07T14:00:15.848Z,100734.27
2019-04-07T14:03:08.356Z,100735.89
2019-04-07T14:06:11.321Z,100732.46
2019-04-07T14:09:02.585Z,100735.89
2019-04-07T14:14:45.345Z,100729.84
2019-04-07T14:17:41.891Z,100737.72
2019-04-07T14:20:22.616Z,100737.17
2019-04-07T14:23:12.167Z,100733.29
2019-04-07T14:26:05.713Z,100728.64
2019-04-07T14:28:56.537Z,100736.76
2019-04-07T14:31:43.142Z,100730.06
2019-04-07T14:34:41.301Z,100729.23
2019-04-07T14:37:40.831Z,100733.80
2019-04-07T14:40:32.135Z,100722.70
2019-04-07T14:43:22.289Z,100722.94
2019-04-07T14:45:59.148Z,100724.73
2019-04-07T14:49:00.079Z,100726.92
2019-04-07T14:51:42.460Z,100726.45
2019-04-07T14:54:37.740Z,100715.25
2019-04-07T14:57:19.097Z,100716.43
2019-04-07T15:00:07.841Z,100716.47
2019-04-07T15:02:41.721Z,100719.72
2019-04-07T15:05:18.567Z,100720.62
2019-04-07T15:08:12.421Z,100723.01
2019-04-07T15:10:47.322Z,100724.89
2019-04-07T15:13:27.967Z,100724.75
2019-04-07T15:15:57.215Z,100723.22
2019-04-07T15:18:28.693Z,100722.69
2019-04-07T15:21:00.330Z,100722.48
2019-04-07T15:23:33.118Z,100721.53
2019-04-07T15:26:05.329Z,100728.13
2019-04-07T15:28:37.230Z,100732.84
2019-04-07T15:31:08.647Z,100733.17
2019-04-07T15:33:40.043Z,100738.44
2019-04-07T15:36:12.796Z,100740.57
2019-04-07T15:38:44.220Z,100736.16
2019-04-07T15:41:18.308Z,100736.76
2019-04-07T15:43:50.036Z,100741.03
2019-04-07T15:46:22.510Z,100740.75
2019-04-07T15:48:55.898Z,100742.30
2019-04-07T15:51:28.296Z,100737.31
2019-04-07T15:54:00.661Z,100736.91
2019-04-07T15:56:32.564Z,100741.45
2019-04-07T15:59:04.326Z,100742.89
2019-04-07T16:01:36.087Z,100739.31
2019-04-07T16:04:09.615Z,100743.55
2019-04-07T16:06:41.897Z,100738.73
2019-04-07T16:09:29.102Z,100743.86
2019-04-07T16:11:49.641Z,100747.11
2019-04-07T16:14:21.910Z,100748.95
2019-04-07T16:16:53.722Z,100745.27
2019-04-07T16:19:37.351Z,100749.05
2019-04-07T16:21:58.248Z,100751.06
2019-04-07T16:24:31.065Z,100750.89
2019-04-07T16:27:05.474Z,100748.39
2019-04-07T16:29:36.473Z,100747.88
2019-04-07T16:32:08.145Z,100751.16
2019-04-07T16:34:42.174Z,100750.58
2019-04-07T16:37:12.386Z,100754.82
2019-04-07T16:39:44.531Z,100749.91
2019-04-07T16:42:16.054Z,100746.43
2019-04-07T16:44:48.340Z,100744.32
2019-04-07T16:47:24.439Z,100745.86
2019-04-07T16:49:52.686Z,100745.86
2019-04-07T16:52:24.421Z,100745.38
2019-04-07T16:54:56.008Z,100744.69
2019-04-07T16:57:31.036Z,100743.64
2019-04-07T17:00:01.562Z,100739.88
2019-04-07T17:02:33.693Z,100747.00
2019-04-07T17:05:05.792Z,100743.66
2019-04-07T17:07:38.224Z,100748.08
2019-04-07T17:10:09.826Z,100745.97
2019-04-07T17:12:41.224Z,100747.02
2019-04-07T17:15:13.532Z,100749.13
2019-04-07T17:17:46.535Z,100752.48
2019-04-07T17:20:18.961Z,100752.49
2019-04-07T17:22:51.096Z,100755.37
2019-04-07T17:25:22.890Z,100750.03
2019-04-07T17:27:56.019Z,100754.55
2019-04-07T17:30:28.993Z,100760.88
2019-04-07T17:33:03.294Z,100761.52
2019-04-07T17:35:35.581Z,100761.21
2019-04-07T17:38:08.604Z,100764.34
2019-04-07T17:40:49.227Z,100763.09
2019-04-07T17:43:55.118Z,100760.19
2019-04-07T17:46:37.379Z,100766.70
2019-04-07T17:49:32.946Z,100770.87
2019-04-07T17:52:21.825Z,100763.81
2019-04-07T17:55:25.265Z,100771.42
2019-04-07T17:58:16.020Z,100767.31
2019-04-07T18:01:20.616Z,100764.30
2019-04-07T18:04:16.151Z,100769.45
2019-04-07T18:07:16.356Z,100767.28
2019-04-07T18:10:10.107Z,100773.53
2019-04-07T18:12:49.816Z,100779.95
2019-04-07T18:15:38.312Z,100775.06
2019-04-07T18:18:41.882Z,100777.05
2019-04-07T18:21:46.871Z,100785.20
2019-04-07T18:24:39.427Z,100791.29
2019-04-07T18:27:34.190Z,100796.20
2019-04-07T18:30:23.221Z,100797.15
2019-04-07T18:33:06.642Z,100800.23
2019-04-07T18:35:56.095Z,100807.91
2019-04-07T18:38:49.653Z,100811.80
2019-04-07T18:41:34.758Z,100809.05
2019-04-07T18:44:23.942Z,100809.77
2019-04-07T18:47:23.359Z,100813.11
2019-04-07T18:50:26.839Z,100809.85
2019-04-07T18:53:17.835Z,100813.56
2019-04-07T18:56:26.028Z,100820.45
2019-04-07T18:59:17.110Z,100818.56
2019-04-07T19:02:14.072Z,100817.53
2019-04-07T19:05:03.891Z,100821.09
2019-04-07T19:07:48.544Z,100829.63
2019-04-07T19:10:42.496Z,100823.77
2019-04-07T19:13:27.006Z,100831.20
2019-04-07T19:16:19.024Z,100834.05
2019-04-07T19:19:21.393Z,100837.67
2019-04-07T19:22:18.878Z,100824.70
2019-04-07T19:25:09.267Z,100830.63
2019-04-07T19:28:00.043Z,100825.89
2019-04-07T19:30:59.269Z,100837.74
2019-04-07T19:34:07.849Z,100841.30
2019-04-07T19:36:49.928Z,100837.52
2019-04-07T19:39:53.087Z,100837.27
2019-04-07T19:42:43.635Z,100838.07
2019-04-07T19:45:41.565Z,100838.30
2019-04-07T19:48:30.940Z,100839.15
2019-04-07T19:51:29.307Z,100836.03
2019-04-07T19:54:27.320Z,100841.23
2019-04-07T19:57:15.432Z,100832.50
2019-04-07T19:59:57.033Z,100832.38
2019-04-07T20:03:09.645Z,100832.25
2019-04-07T20:05:53.370Z,100831.77
2019-04-07T20:08:34.548Z,100830.50
2019-04-07T20:11:28.461Z,100831.77
2019-04-07T20:14:13.336Z,100838.06
2019-04-07T20:16:59.866Z,100825.80
2019-04-07T20:19:51.345Z,100826.77
2019-04-07T20:22:35.774Z,100830.18
2019-04-07T20:25:20.201Z,100829.70
2019-04-07T20:28:30.248Z,100835.02
2019-04-07T20:31:26.475Z,100832.63
2019-04-07T20:34:16.636Z,100829.08
2019-04-07T20:37:26.681Z,100834.88
2019-04-07T20:40:22.188Z,100836.15
2019-04-07T20:43:01.078Z,100824.09
2019-04-07T20:45:49.129Z,100817.77
2019-04-07T20:48:46.808Z,100826.36
2019-04-07T20:51:28.361Z,100819.98
2019-04-07T20:54:24.633Z,100820.67
2019-04-07T20:57:07.533Z,100817.67
2019-04-07T21:00:03.667Z,100816.74
2019-04-07T21:03:06.467Z,100810.67
2019-04-07T21:05:42.001Z,100809.19
2019-04-07T21:08:38.764Z,100812.87
2019-04-07T21:11:24.089Z,100815.63
2019-04-07T21:14:17.185Z,100822.51
2019-04-07T21:17:10.754Z,100817.75
2019-04-07T21:20:05.407Z,100826.80
2019-04-07T21:23:02.802Z,100829.44
2019-04-07T21:25:55.832Z,100830.81
2019-04-07T21:28:47.205Z,100836.80
2019-04-07T21:31:41.316Z,100833.34
2019-04-07T21:34:29.589Z,100838.48
2019-04-07T21:37:19.825Z,100837.70
2019-04-07T21:40:04.200Z,100833.61
2019-04-07T21:43:00.536Z,100839.22
2019-04-07T21:45:49.849Z,100838.55
2019-04-07T21:48:45.938Z,100834.61
2019-04-07T21:51:52.665Z,100834.39
2019-04-07T21:54:46.996Z,100838.41
2019-04-07T21:57:55.338Z,100832.53
2019-04-07T22:00:43.326Z,100841.64
2019-04-07T22:03:46.187Z,100843.72
2019-04-07T22:06:32.099Z,100841.75
2019-04-07T22:09:15.898Z,100842.83
2019-04-07T22:11:45.943Z,100844.09
2019-04-07T22:14:17.074Z,100842.50
2019-04-07T22:16:48.969Z,100844.84
2019-04-07T22:19:21.075Z,100845.06
2019-04-07T22:21:55.759Z,100851.69
2019-04-07T22:24:26.327Z,100843.98
2019-04-07T22:26:57.639Z,100837.02
2019-04-07T22:29:28.861Z,100843.11
2019-04-07T22:32:00.070Z,100843.67
2019-04-07T22:34:32.653Z,100839.72
2019-04-07T22:37:04.838Z,100838.45
2019-04-07T22:39:36.110Z,100832.70
2019-04-07T22:42:07.301Z,100827.20
2019-04-07T22:44:38.521Z,100823.47
2019-04-07T22:48:16.533Z,100818.23
2019-04-07T22:50:47.746Z,100813.55
2019-04-07T22:53:22.312Z,100818.16
2019-04-07T22:55:52.712Z,100811.47
2019-04-07T22:58:24.284Z,100811.61
2019-04-07T23:00:55.559Z,100803.98
2019-04-07T23:03:27.153Z,100801.58
2019-04-07T23:05:59.041Z,100803.92
2019-04-07T23:08:30.319Z,100803.98
2019-04-07T23:11:02.200Z,100807.25
2019-04-07T23:13:33.512Z,100801.38
2019-04-07T23:16:10.538Z,100798.96
2019-04-07T23:18:40.736Z,100802.78
2019-04-07T23:21:12.106Z,100804.55
2019-04-07T23:23:43.394Z,100802.63
2019-04-07T23:26:14.563Z,100808.49
2019-04-07T23:28:47.063Z,100801.78
2019-04-07T23:31:19.438Z,100802.67
2019-04-07T23:33:53.354Z,100800.27
2019-04-07T23:36:24.784Z,100796.25
2019-04-07T23:38:55.992Z,100802.27
2019-04-07T23:41:27.793Z,100794.48
2019-04-07T23:43:59.065Z,100804.47
2019-04-07T23:46:30.341Z,100798.50
2019-04-07T23:49:01.649Z,100796.57
2019-04-07T23:51:32.855Z,100789.20
2019-04-07T23:54:09.167Z,100803.23
2019-04-07T23:56:41.806Z,100797.27
2019-04-07T23:59:16.790Z,100798.95
